Riverton, Connecticut
Current Conditions -  °F | °C
As of 12:51 AM on Wednesday 22 Oct 2014 (Local Time) from KBDL Reporting Station
Light Rain Light Rain  
Wind Chill: 55°   Ceiling: 1200
Heat Index: 55°   Visibility: 10mi
Dew Point: 49°   Wind: 12mph
Humidity: 80%   Direction: 20°NNE
Pressure: 29.96"   Gusts: NA
Location:  41.96°N, 73.02°W
Report Text: KBDL 220451Z 02010KT 10SM -RA BKN012 OVC015 13/09 A2996 RMK AO2 RAB46 SLP145 P0000 T01280094 401940061
Loading
Personal Weather Stations






























Interactive Weather Map
Tropical Storm Tracking
New forecast layout! Learn more

10-Day Weather Forecast

Advertisements
Track Severe Weather on mobile